sensor_id;sensor_type;location;lat;lon;timestamp;P1;durP1;ratioP1;P2;durP2;ratioP2
12407;SDS011;6268;48.188;17.134;2023-08-21T00:01:58;8.60;;;7.90;;
12407;SDS011;6268;48.188;17.134;2023-08-21T00:04:26;8.32;;;7.70;;
12407;SDS011;6268;48.188;17.134;2023-08-21T00:06:55;7.53;;;7.07;;
12407;SDS011;6268;48.188;17.134;2023-08-21T00:09:25;7.82;;;7.18;;
12407;SDS011;6268;48.188;17.134;2023-08-21T00:11:53;7.97;;;7.20;;
12407;SDS011;6268;48.188;17.134;2023-08-21T00:14:22;8.38;;;7.78;;
12407;SDS011;6268;48.188;17.134;2023-08-21T00:16:50;10.05;;;7.82;;
12407;SDS011;6268;48.188;17.134;2023-08-21T00:19:19;8.02;;;7.35;;
12407;SDS011;6268;48.188;17.134;2023-08-21T00:21:47;8.70;;;7.90;;
12407;SDS011;6268;48.188;17.134;2023-08-21T00:24:16;8.75;;;7.95;;
12407;SDS011;6268;48.188;17.134;2023-08-21T00:26:46;8.30;;;7.60;;
12407;SDS011;6268;48.188;17.134;2023-08-21T00:29:14;7.90;;;7.15;;
12407;SDS011;6268;48.188;17.134;2023-08-21T00:31:43;8.52;;;7.50;;
12407;SDS011;6268;48.188;17.134;2023-08-21T00:34:11;9.75;;;8.85;;
12407;SDS011;6268;48.188;17.134;2023-08-21T00:36:39;9.10;;;8.35;;
12407;SDS011;6268;48.188;17.134;2023-08-21T00:39:08;9.20;;;8.30;;
12407;SDS011;6268;48.188;17.134;2023-08-21T00:41:36;11.50;;;8.73;;
12407;SDS011;6268;48.188;17.134;2023-08-21T00:44:06;8.70;;;8.00;;
12407;SDS011;6268;48.188;17.134;2023-08-21T00:46:34;9.95;;;8.10;;
12407;SDS011;6268;48.188;17.134;2023-08-21T00:49:03;9.55;;;8.82;;
12407;SDS011;6268;48.188;17.134;2023-08-21T00:51:32;8.75;;;8.15;;
12407;SDS011;6268;48.188;17.134;2023-08-21T00:54:01;8.75;;;8.13;;
12407;SDS011;6268;48.188;17.134;2023-08-21T00:56:30;9.07;;;8.18;;
12407;SDS011;6268;48.188;17.134;2023-08-21T00:58:59;10.95;;;9.98;;
12407;SDS011;6268;48.188;17.134;2023-08-21T01:01:29;12.43;;;11.23;;
12407;SDS011;6268;48.188;17.134;2023-08-21T01:03:57;12.18;;;11.18;;
12407;SDS011;6268;48.188;17.134;2023-08-21T01:06:26;12.82;;;11.60;;
12407;SDS011;6268;48.188;17.134;2023-08-21T01:08:56;13.90;;;12.70;;
12407;SDS011;6268;48.188;17.134;2023-08-21T01:11:31;13.50;;;12.02;;
12407;SDS011;6268;48.188;17.134;2023-08-21T01:14:12;11.30;;;10.43;;
12407;SDS011;6268;48.188;17.134;2023-08-21T01:16:46;9.48;;;8.70;;
12407;SDS011;6268;48.188;17.134;2023-08-21T01:19:19;9.13;;;8.45;;
12407;SDS011;6268;48.188;17.134;2023-08-21T01:21:58;8.93;;;8.23;;
12407;SDS011;6268;48.188;17.134;2023-08-21T01:24:28;9.60;;;8.82;;
12407;SDS011;6268;48.188;17.134;2023-08-21T01:26:57;9.15;;;8.35;;
12407;SDS011;6268;48.188;17.134;2023-08-21T01:29:25;8.38;;;7.72;;
12407;SDS011;6268;48.188;17.134;2023-08-21T01:31:55;9.10;;;8.50;;
12407;SDS011;6268;48.188;17.134;2023-08-21T01:34:37;8.77;;;8.13;;
12407;SDS011;6268;48.188;17.134;2023-08-21T01:37:06;8.93;;;8.25;;
12407;SDS011;6268;48.188;17.134;2023-08-21T01:39:37;8.50;;;7.90;;
12407;SDS011;6268;48.188;17.134;2023-08-21T01:42:05;8.93;;;8.32;;
12407;SDS011;6268;48.188;17.134;2023-08-21T01:44:34;8.55;;;7.85;;
12407;SDS011;6268;48.188;17.134;2023-08-21T01:47:02;9.50;;;8.80;;
12407;SDS011;6268;48.188;17.134;2023-08-21T01:49:31;10.07;;;9.18;;
12407;SDS011;6268;48.188;17.134;2023-08-21T01:51:59;11.55;;;7.80;;
12407;SDS011;6268;48.188;17.134;2023-08-21T01:54:28;9.75;;;9.05;;
12407;SDS011;6268;48.188;17.134;2023-08-21T01:56:58;9.25;;;8.65;;
12407;SDS011;6268;48.188;17.134;2023-08-21T01:59:26;10.13;;;9.43;;
12407;SDS011;6268;48.188;17.134;2023-08-21T02:01:54;9.32;;;8.63;;
12407;SDS011;6268;48.188;17.134;2023-08-21T02:04:23;10.07;;;9.32;;
12407;SDS011;6268;48.188;17.134;2023-08-21T02:06:51;7.97;;;7.47;;
12407;SDS011;6268;48.188;17.134;2023-08-21T02:09:20;9.50;;;8.75;;
12407;SDS011;6268;48.188;17.134;2023-08-21T02:11:48;10.32;;;9.57;;
12407;SDS011;6268;48.188;17.134;2023-08-21T02:14:18;9.73;;;9.02;;
12407;SDS011;6268;48.188;17.134;2023-08-21T02:16:46;9.27;;;8.38;;
12407;SDS011;6268;48.188;17.134;2023-08-21T02:19:16;8.65;;;7.90;;
12407;SDS011;6268;48.188;17.134;2023-08-21T02:21:44;9.63;;;8.82;;
12407;SDS011;6268;48.188;17.134;2023-08-21T02:24:13;9.20;;;8.30;;
12407;SDS011;6268;48.188;17.134;2023-08-21T02:26:41;9.60;;;8.63;;
12407;SDS011;6268;48.188;17.134;2023-08-21T02:29:12;9.68;;;8.90;;
12407;SDS011;6268;48.188;17.134;2023-08-21T02:31:42;8.38;;;7.68;;
12407;SDS011;6268;48.188;17.134;2023-08-21T02:34:10;8.70;;;8.00;;
12407;SDS011;6268;48.188;17.134;2023-08-21T02:36:39;8.45;;;7.95;;
12407;SDS011;6268;48.188;17.134;2023-08-21T02:39:07;9.18;;;8.55;;
12407;SDS011;6268;48.188;17.134;2023-08-21T02:41:35;9.52;;;8.68;;
12407;SDS011;6268;48.188;17.134;2023-08-21T02:44:04;9.05;;;8.20;;
12407;SDS011;6268;48.188;17.134;2023-08-21T02:46:33;8.40;;;7.70;;
12407;SDS011;6268;48.188;17.134;2023-08-21T02:49:04;8.48;;;7.78;;
12407;SDS011;6268;48.188;17.134;2023-08-21T02:51:33;8.48;;;7.75;;
12407;SDS011;6268;48.188;17.134;2023-08-21T02:54:01;7.95;;;7.45;;
12407;SDS011;6268;48.188;17.134;2023-08-21T02:56:30;8.57;;;8.07;;
12407;SDS011;6268;48.188;17.134;2023-08-21T02:58:58;8.38;;;7.68;;
12407;SDS011;6268;48.188;17.134;2023-08-21T03:01:27;8.80;;;8.20;;
12407;SDS011;6268;48.188;17.134;2023-08-21T03:03:55;8.75;;;8.05;;
12407;SDS011;6268;48.188;17.134;2023-08-21T03:06:25;10.18;;;9.38;;
12407;SDS011;6268;48.188;17.134;2023-08-21T03:08:54;9.77;;;9.07;;
12407;SDS011;6268;48.188;17.134;2023-08-21T03:11:22;10.23;;;9.27;;
12407;SDS011;6268;48.188;17.134;2023-08-21T03:13:51;9.95;;;9.05;;
12407;SDS011;6268;48.188;17.134;2023-08-21T03:16:19;10.35;;;9.38;;
12407;SDS011;6268;48.188;17.134;2023-08-21T03:18:55;9.85;;;8.95;;
12407;SDS011;6268;48.188;17.134;2023-08-21T03:21:25;10.60;;;9.05;;
12407;SDS011;6268;48.188;17.134;2023-08-21T03:23:54;9.82;;;8.80;;
12407;SDS011;6268;48.188;17.134;2023-08-21T03:26:27;8.77;;;7.97;;
12407;SDS011;6268;48.188;17.134;2023-08-21T03:28:56;10.63;;;9.63;;
12407;SDS011;6268;48.188;17.134;2023-08-21T03:31:24;9.27;;;8.57;;
12407;SDS011;6268;48.188;17.134;2023-08-21T03:33:53;9.68;;;8.77;;
12407;SDS011;6268;48.188;17.134;2023-08-21T03:36:22;8.73;;;7.78;;
12407;SDS011;6268;48.188;17.134;2023-08-21T03:38:58;9.55;;;8.73;;
12407;SDS011;6268;48.188;17.134;2023-08-21T03:41:27;9.43;;;8.60;;
12407;SDS011;6268;48.188;17.134;2023-08-21T03:43:56;10.52;;;9.57;;
12407;SDS011;6268;48.188;17.134;2023-08-21T03:46:24;11.10;;;9.98;;
12407;SDS011;6268;48.188;17.134;2023-08-21T03:48:53;9.23;;;8.43;;
12407;SDS011;6268;48.188;17.134;2023-08-21T03:51:21;9.35;;;8.75;;
12407;SDS011;6268;48.188;17.134;2023-08-21T03:53:50;10.40;;;9.60;;
12407;SDS011;6268;48.188;17.134;2023-08-21T03:56:20;9.77;;;8.98;;
12407;SDS011;6268;48.188;17.134;2023-08-21T03:58:50;9.80;;;8.90;;
12407;SDS011;6268;48.188;17.134;2023-08-21T04:01:18;9.80;;;9.10;;
12407;SDS011;6268;48.188;17.134;2023-08-21T04:03:47;9.38;;;8.60;;
12407;SDS011;6268;48.188;17.134;2023-08-21T04:06:15;9.40;;;8.60;;
12407;SDS011;6268;48.188;17.134;2023-08-21T04:08:44;9.60;;;8.95;;
12407;SDS011;6268;48.188;17.134;2023-08-21T04:11:12;9.10;;;8.40;;
12407;SDS011;6268;48.188;17.134;2023-08-21T04:13:42;9.77;;;8.88;;
12407;SDS011;6268;48.188;17.134;2023-08-21T04:16:11;9.93;;;9.00;;
12407;SDS011;6268;48.188;17.134;2023-08-21T04:18:39;10.40;;;9.35;;
12407;SDS011;6268;48.188;17.134;2023-08-21T04:21:08;10.48;;;9.15;;
12407;SDS011;6268;48.188;17.134;2023-08-21T04:23:37;10.02;;;9.23;;
12407;SDS011;6268;48.188;17.134;2023-08-21T04:26:05;9.77;;;8.98;;
12407;SDS011;6268;48.188;17.134;2023-08-21T04:28:35;9.18;;;8.38;;
12407;SDS011;6268;48.188;17.134;2023-08-21T04:31:05;9.23;;;8.43;;
12407;SDS011;6268;48.188;17.134;2023-08-21T04:33:34;9.38;;;8.48;;
12407;SDS011;6268;48.188;17.134;2023-08-21T04:36:23;8.15;;;7.45;;
12407;SDS011;6268;48.188;17.134;2023-08-21T04:38:52;8.50;;;7.78;;
12407;SDS011;6268;48.188;17.134;2023-08-21T04:41:20;8.80;;;8.10;;
12407;SDS011;6268;48.188;17.134;2023-08-21T04:43:49;8.48;;;7.85;;
12407;SDS011;6268;48.188;17.134;2023-08-21T04:46:19;12.45;;;7.75;;
12407;SDS011;6268;48.188;17.134;2023-08-21T04:48:48;9.15;;;8.07;;
12407;SDS011;6268;48.188;17.134;2023-08-21T04:51:16;9.32;;;8.38;;
12407;SDS011;6268;48.188;17.134;2023-08-21T04:53:49;9.40;;;7.72;;
12407;SDS011;6268;48.188;17.134;2023-08-21T04:56:18;14.02;;;8.93;;
12407;SDS011;6268;48.188;17.134;2023-08-21T04:58:46;8.57;;;7.97;;
12407;SDS011;6268;48.188;17.134;2023-08-21T05:01:27;8.40;;;7.60;;
12407;SDS011;6268;48.188;17.134;2023-08-21T05:03:56;10.55;;;7.13;;
12407;SDS011;6268;48.188;17.134;2023-08-21T05:06:25;9.65;;;7.55;;
12407;SDS011;6268;48.188;17.134;2023-08-21T05:08:53;11.15;;;7.43;;
12407;SDS011;6268;48.188;17.134;2023-08-21T05:11:22;7.30;;;6.80;;
12407;SDS011;6268;48.188;17.134;2023-08-21T05:13:51;11.20;;;8.10;;
12407;SDS011;6268;48.188;17.134;2023-08-21T05:16:20;7.22;;;6.43;;
12407;SDS011;6268;48.188;17.134;2023-08-21T05:18:50;7.93;;;7.43;;
12407;SDS011;6268;48.188;17.134;2023-08-21T05:21:18;7.65;;;6.95;;
12407;SDS011;6268;48.188;17.134;2023-08-21T05:23:47;7.07;;;6.55;;
12407;SDS011;6268;48.188;17.134;2023-08-21T05:26:15;7.10;;;6.50;;
12407;SDS011;6268;48.188;17.134;2023-08-21T05:28:44;8.30;;;7.60;;
12407;SDS011;6268;48.188;17.134;2023-08-21T05:31:12;8.70;;;7.75;;
12407;SDS011;6268;48.188;17.134;2023-08-21T05:33:41;7.95;;;6.68;;
12407;SDS011;6268;48.188;17.134;2023-08-21T05:36:11;8.02;;;6.80;;
12407;SDS011;6268;48.188;17.134;2023-08-21T05:38:39;7.45;;;6.95;;
12407;SDS011;6268;48.188;17.134;2023-08-21T05:41:08;8.50;;;7.80;;
12407;SDS011;6268;48.188;17.134;2023-08-21T05:43:36;8.52;;;7.75;;
12407;SDS011;6268;48.188;17.134;2023-08-21T05:46:06;9.23;;;8.38;;
12407;SDS011;6268;48.188;17.134;2023-08-21T05:48:34;10.43;;;8.40;;
12407;SDS011;6268;48.188;17.134;2023-08-21T05:51:02;9.60;;;8.77;;
12407;SDS011;6268;48.188;17.134;2023-08-21T05:53:33;9.05;;;8.35;;
12407;SDS011;6268;48.188;17.134;2023-08-21T05:56:01;9.65;;;8.95;;
12407;SDS011;6268;48.188;17.134;2023-08-21T05:58:30;10.75;;;9.80;;
12407;SDS011;6268;48.188;17.134;2023-08-21T06:00:59;10.50;;;9.52;;
12407;SDS011;6268;48.188;17.134;2023-08-21T06:03:28;11.35;;;10.15;;
12407;SDS011;6268;48.188;17.134;2023-08-21T06:05:56;9.68;;;8.77;;
12407;SDS011;6268;48.188;17.134;2023-08-21T06:08:24;10.57;;;9.77;;
12407;SDS011;6268;48.188;17.134;2023-08-21T06:10:54;10.88;;;9.38;;
12407;SDS011;6268;48.188;17.134;2023-08-21T06:13:23;10.77;;;8.95;;
12407;SDS011;6268;48.188;17.134;2023-08-21T06:15:52;9.82;;;8.75;;
12407;SDS011;6268;48.188;17.134;2023-08-21T06:18:21;11.90;;;8.88;;
12407;SDS011;6268;48.188;17.134;2023-08-21T06:20:49;10.02;;;8.95;;
12407;SDS011;6268;48.188;17.134;2023-08-21T06:23:20;10.48;;;9.38;;
12407;SDS011;6268;48.188;17.134;2023-08-21T06:25:48;11.50;;;9.02;;
12407;SDS011;6268;48.188;17.134;2023-08-21T06:28:18;12.43;;;10.05;;
12407;SDS011;6268;48.188;17.134;2023-08-21T06:30:47;10.82;;;9.73;;
12407;SDS011;6268;48.188;17.134;2023-08-21T06:33:21;10.30;;;9.32;;
12407;SDS011;6268;48.188;17.134;2023-08-21T06:35:49;10.60;;;9.63;;
12407;SDS011;6268;48.188;17.134;2023-08-21T06:38:18;11.48;;;10.43;;
12407;SDS011;6268;48.188;17.134;2023-08-21T06:40:46;12.25;;;10.65;;
12407;SDS011;6268;48.188;17.134;2023-08-21T06:43:16;14.68;;;11.38;;
12407;SDS011;6268;48.188;17.134;2023-08-21T06:45:46;15.35;;;11.82;;
12407;SDS011;6268;48.188;17.134;2023-08-21T06:48:14;11.02;;;9.35;;
12407;SDS011;6268;48.188;17.134;2023-08-21T06:50:43;11.02;;;10.00;;
12407;SDS011;6268;48.188;17.134;2023-08-21T06:53:11;9.40;;;8.70;;
12407;SDS011;6268;48.188;17.134;2023-08-21T06:55:40;8.48;;;7.78;;
12407;SDS011;6268;48.188;17.134;2023-08-21T06:58:08;10.20;;;9.40;;
12407;SDS011;6268;48.188;17.134;2023-08-21T07:00:36;10.65;;;9.75;;
12407;SDS011;6268;48.188;17.134;2023-08-21T07:03:06;13.07;;;11.15;;
12407;SDS011;6268;48.188;17.134;2023-08-21T07:05:35;12.18;;;11.25;;
12407;SDS011;6268;48.188;17.134;2023-08-21T07:08:04;10.65;;;9.80;;
12407;SDS011;6268;48.188;17.134;2023-08-21T07:10:35;12.60;;;11.32;;
12407;SDS011;6268;48.188;17.134;2023-08-21T07:13:04;15.25;;;13.93;;
12407;SDS011;6268;48.188;17.134;2023-08-21T07:15:33;15.38;;;13.88;;
12407;SDS011;6268;48.188;17.134;2023-08-21T07:18:01;15.52;;;12.88;;
12407;SDS011;6268;48.188;17.134;2023-08-21T07:20:31;9.68;;;8.98;;
12407;SDS011;6268;48.188;17.134;2023-08-21T07:23:00;10.65;;;9.65;;
12407;SDS011;6268;48.188;17.134;2023-08-21T07:25:28;9.60;;;8.90;;
12407;SDS011;6268;48.188;17.134;2023-08-21T07:27:57;9.30;;;8.68;;
12407;SDS011;6268;48.188;17.134;2023-08-21T07:30:25;7.80;;;7.30;;
12407;SDS011;6268;48.188;17.134;2023-08-21T07:32:55;9.13;;;8.30;;
12407;SDS011;6268;48.188;17.134;2023-08-21T07:35:23;8.20;;;7.70;;
12407;SDS011;6268;48.188;17.134;2023-08-21T07:37:53;8.32;;;7.72;;
12407;SDS011;6268;48.188;17.134;2023-08-21T07:40:22;8.43;;;7.63;;
12407;SDS011;6268;48.188;17.134;2023-08-21T07:42:51;8.38;;;7.70;;
12407;SDS011;6268;48.188;17.134;2023-08-21T07:45:19;9.23;;;8.18;;
12407;SDS011;6268;48.188;17.134;2023-08-21T07:47:47;7.43;;;7.03;;
12407;SDS011;6268;48.188;17.134;2023-08-21T07:50:34;7.75;;;7.22;;
12407;SDS011;6268;48.188;17.134;2023-08-21T07:53:04;8.15;;;7.57;;
12407;SDS011;6268;48.188;17.134;2023-08-21T07:55:32;8.38;;;7.78;;
12407;SDS011;6268;48.188;17.134;2023-08-21T07:58:01;8.32;;;7.72;;
12407;SDS011;6268;48.188;17.134;2023-08-21T08:00:30;7.90;;;7.25;;
12407;SDS011;6268;48.188;17.134;2023-08-21T08:02:59;8.52;;;7.72;;
12407;SDS011;6268;48.188;17.134;2023-08-21T08:05:27;8.38;;;7.88;;
12407;SDS011;6268;48.188;17.134;2023-08-21T08:08:00;7.93;;;7.30;;
12407;SDS011;6268;48.188;17.134;2023-08-21T08:10:30;7.90;;;7.30;;
12407;SDS011;6268;48.188;17.134;2023-08-21T08:12:58;8.05;;;7.47;;
12407;SDS011;6268;48.188;17.134;2023-08-21T08:15:27;8.15;;;7.38;;
12407;SDS011;6268;48.188;17.134;2023-08-21T08:17:55;8.43;;;7.93;;
12407;SDS011;6268;48.188;17.134;2023-08-21T08:20:25;8.43;;;7.93;;
12407;SDS011;6268;48.188;17.134;2023-08-21T08:22:53;7.70;;;7.30;;
12407;SDS011;6268;48.188;17.134;2023-08-21T08:25:22;8.40;;;7.90;;
12407;SDS011;6268;48.188;17.134;2023-08-21T08:27:53;8.18;;;7.53;;
12407;SDS011;6268;48.188;17.134;2023-08-21T08:30:21;9.02;;;8.32;;
12407;SDS011;6268;48.188;17.134;2023-08-21T08:32:50;8.27;;;7.55;;
12407;SDS011;6268;48.188;17.134;2023-08-21T08:35:19;8.77;;;8.07;;
12407;SDS011;6268;48.188;17.134;2023-08-21T08:37:47;8.45;;;7.85;;
12407;SDS011;6268;48.188;17.134;2023-08-21T08:40:16;8.40;;;7.75;;
12407;SDS011;6268;48.188;17.134;2023-08-21T08:42:44;8.55;;;7.85;;
12407;SDS011;6268;48.188;17.134;2023-08-21T08:45:14;8.50;;;7.78;;
12407;SDS011;6268;48.188;17.134;2023-08-21T08:47:52;9.18;;;8.55;;
12407;SDS011;6268;48.188;17.134;2023-08-21T08:50:22;8.57;;;7.72;;
12407;SDS011;6268;48.188;17.134;2023-08-21T08:52:52;9.00;;;8.40;;
12407;SDS011;6268;48.188;17.134;2023-08-21T08:55:35;8.55;;;7.95;;
12407;SDS011;6268;48.188;17.134;2023-08-21T08:58:04;8.30;;;7.55;;
12407;SDS011;6268;48.188;17.134;2023-08-21T09:00:34;8.15;;;7.45;;
12407;SDS011;6268;48.188;17.134;2023-08-21T09:03:02;8.48;;;7.88;;
12407;SDS011;6268;48.188;17.134;2023-08-21T09:05:32;9.30;;;8.40;;
12407;SDS011;6268;48.188;17.134;2023-08-21T09:08:02;10.88;;;7.95;;
12407;SDS011;6268;48.188;17.134;2023-08-21T09:10:31;8.00;;;7.60;;
12407;SDS011;6268;48.188;17.134;2023-08-21T09:13:00;9.10;;;8.30;;
12407;SDS011;6268;48.188;17.134;2023-08-21T09:15:28;8.57;;;7.85;;
12407;SDS011;6268;48.188;17.134;2023-08-21T09:18:09;9.32;;;8.48;;
12407;SDS011;6268;48.188;17.134;2023-08-21T09:20:39;8.98;;;8.25;;
12407;SDS011;6268;48.188;17.134;2023-08-21T09:23:07;9.82;;;7.95;;
12407;SDS011;6268;48.188;17.134;2023-08-21T09:25:40;10.57;;;8.32;;
12407;SDS011;6268;48.188;17.134;2023-08-21T09:28:11;8.32;;;7.75;;
12407;SDS011;6268;48.188;17.134;2023-08-21T09:30:46;11.75;;;10.50;;
12407;SDS011;6268;48.188;17.134;2023-08-21T09:33:20;11.90;;;10.90;;
12407;SDS011;6268;48.188;17.134;2023-08-21T09:35:51;12.45;;;11.65;;
12407;SDS011;6268;48.188;17.134;2023-08-21T09:38:20;10.77;;;9.98;;
12407;SDS011;6268;48.188;17.134;2023-08-21T09:40:50;8.32;;;7.93;;
12407;SDS011;6268;48.188;17.134;2023-08-21T09:43:20;8.38;;;7.72;;
12407;SDS011;6268;48.188;17.134;2023-08-21T09:45:50;8.80;;;8.20;;
12407;SDS011;6268;48.188;17.134;2023-08-21T09:48:23;8.18;;;7.65;;
12407;SDS011;6268;48.188;17.134;2023-08-21T09:50:54;7.20;;;6.78;;
12407;SDS011;6268;48.188;17.134;2023-08-21T09:53:23;8.55;;;7.88;;
12407;SDS011;6268;48.188;17.134;2023-08-21T09:55:52;8.57;;;7.80;;
12407;SDS011;6268;48.188;17.134;2023-08-21T09:58:22;7.88;;;7.28;;
12407;SDS011;6268;48.188;17.134;2023-08-21T10:00:51;8.07;;;7.68;;
12407;SDS011;6268;48.188;17.134;2023-08-21T10:03:26;8.90;;;8.10;;
12407;SDS011;6268;48.188;17.134;2023-08-21T10:05:56;8.43;;;7.88;;
12407;SDS011;6268;48.188;17.134;2023-08-21T10:08:27;8.00;;;7.35;;
12407;SDS011;6268;48.188;17.134;2023-08-21T10:10:56;9.45;;;8.85;;
12407;SDS011;6268;48.188;17.134;2023-08-21T10:13:30;8.75;;;8.20;;
12407;SDS011;6268;48.188;17.134;2023-08-21T10:16:00;8.57;;;7.95;;
12407;SDS011;6268;48.188;17.134;2023-08-21T10:18:31;8.60;;;8.05;;
12407;SDS011;6268;48.188;17.134;2023-08-21T10:21:13;9.27;;;8.65;;
12407;SDS011;6268;48.188;17.134;2023-08-21T10:23:43;8.32;;;7.72;;
12407;SDS011;6268;48.188;17.134;2023-08-21T10:26:15;8.93;;;8.30;;
12407;SDS011;6268;48.188;17.134;2023-08-21T10:28:50;8.75;;;8.07;;
12407;SDS011;6268;48.188;17.134;2023-08-21T10:31:26;8.10;;;7.60;;
12407;SDS011;6268;48.188;17.134;2023-08-21T10:34:02;9.02;;;8.50;;
12407;SDS011;6268;48.188;17.134;2023-08-21T10:39:34;7.82;;;7.30;;
12407;SDS011;6268;48.188;17.134;2023-08-21T10:42:05;8.90;;;8.18;;
12407;SDS011;6268;48.188;17.134;2023-08-21T10:47:30;8.90;;;8.13;;
12407;SDS011;6268;48.188;17.134;2023-08-21T10:50:03;8.55;;;8.05;;
12407;SDS011;6268;48.188;17.134;2023-08-21T10:52:35;7.80;;;7.30;;
12407;SDS011;6268;48.188;17.134;2023-08-21T10:55:05;8.13;;;7.55;;
12407;SDS011;6268;48.188;17.134;2023-08-21T10:57:34;8.80;;;8.20;;
12407;SDS011;6268;48.188;17.134;2023-08-21T11:00:04;8.77;;;8.27;;
12407;SDS011;6268;48.188;17.134;2023-08-21T11:02:36;8.10;;;7.70;;
12407;SDS011;6268;48.188;17.134;2023-08-21T11:05:07;8.52;;;7.90;;
12407;SDS011;6268;48.188;17.134;2023-08-21T11:07:37;8.32;;;7.88;;
12407;SDS011;6268;48.188;17.134;2023-08-21T11:10:07;8.00;;;7.40;;
12407;SDS011;6268;48.188;17.134;2023-08-21T11:12:38;8.05;;;7.45;;
12407;SDS011;6268;48.188;17.134;2023-08-21T11:15:17;7.30;;;6.80;;
12407;SDS011;6268;48.188;17.134;2023-08-21T11:17:55;8.02;;;7.53;;
12407;SDS011;6268;48.188;17.134;2023-08-21T11:20:30;8.35;;;7.55;;
12407;SDS011;6268;48.188;17.134;2023-08-21T11:23:00;7.95;;;7.32;;
12407;SDS011;6268;48.188;17.134;2023-08-21T11:25:29;7.35;;;6.95;;
12407;SDS011;6268;48.188;17.134;2023-08-21T11:27:58;7.90;;;7.15;;
12407;SDS011;6268;48.188;17.134;2023-08-21T11:30:30;7.47;;;6.97;;
12407;SDS011;6268;48.188;17.134;2023-08-21T11:33:05;7.45;;;6.75;;
12407;SDS011;6268;48.188;17.134;2023-08-21T11:35:36;7.85;;;7.25;;
12407;SDS011;6268;48.188;17.134;2023-08-21T11:38:05;6.53;;;6.10;;
12407;SDS011;6268;48.188;17.134;2023-08-21T11:40:35;6.22;;;5.88;;
12407;SDS011;6268;48.188;17.134;2023-08-21T11:43:04;6.68;;;6.07;;
12407;SDS011;6268;48.188;17.134;2023-08-21T11:45:34;6.00;;;5.60;;
12407;SDS011;6268;48.188;17.134;2023-08-21T11:48:22;6.20;;;5.90;;
12407;SDS011;6268;48.188;17.134;2023-08-21T11:50:53;6.25;;;5.75;;
12407;SDS011;6268;48.188;17.134;2023-08-21T11:53:32;6.28;;;5.88;;
12407;SDS011;6268;48.188;17.134;2023-08-21T11:56:02;6.30;;;5.80;;
12407;SDS011;6268;48.188;17.134;2023-08-21T11:58:31;5.05;;;4.63;;
12407;SDS011;6268;48.188;17.134;2023-08-21T12:01:03;5.40;;;5.10;;
12407;SDS011;6268;48.188;17.134;2023-08-21T12:03:35;5.75;;;5.28;;
12407;SDS011;6268;48.188;17.134;2023-08-21T12:06:07;5.07;;;4.78;;
12407;SDS011;6268;48.188;17.134;2023-08-21T12:08:36;5.80;;;5.40;;
12407;SDS011;6268;48.188;17.134;2023-08-21T12:11:05;5.35;;;5.05;;
12407;SDS011;6268;48.188;17.134;2023-08-21T12:13:34;4.72;;;4.53;;
12407;SDS011;6268;48.188;17.134;2023-08-21T12:16:03;4.68;;;4.47;;
12407;SDS011;6268;48.188;17.134;2023-08-21T12:18:31;5.15;;;4.85;;
12407;SDS011;6268;48.188;17.134;2023-08-21T12:21:00;5.32;;;5.03;;
12407;SDS011;6268;48.188;17.134;2023-08-21T12:23:30;5.10;;;4.70;;
12407;SDS011;6268;48.188;17.134;2023-08-21T12:25:59;5.35;;;4.95;;
12407;SDS011;6268;48.188;17.134;2023-08-21T12:28:27;5.05;;;4.75;;
12407;SDS011;6268;48.188;17.134;2023-08-21T12:30:57;4.68;;;4.43;;
12407;SDS011;6268;48.188;17.134;2023-08-21T12:33:25;3.55;;;3.33;;
12407;SDS011;6268;48.188;17.134;2023-08-21T12:35:54;4.32;;;3.97;;
12407;SDS011;6268;48.188;17.134;2023-08-21T12:38:22;3.30;;;3.00;;
12407;SDS011;6268;48.188;17.134;2023-08-21T12:40:57;3.30;;;3.10;;
12407;SDS011;6268;48.188;17.134;2023-08-21T12:43:26;4.70;;;4.50;;
12407;SDS011;6268;48.188;17.134;2023-08-21T12:45:55;4.03;;;3.70;;
12407;SDS011;6268;48.188;17.134;2023-08-21T12:48:23;3.63;;;3.35;;
12407;SDS011;6268;48.188;17.134;2023-08-21T12:50:52;5.05;;;4.70;;
12407;SDS011;6268;48.188;17.134;2023-08-21T12:53:20;4.05;;;3.85;;
12407;SDS011;6268;48.188;17.134;2023-08-21T12:55:49;4.10;;;3.90;;
12407;SDS011;6268;48.188;17.134;2023-08-21T12:58:19;4.43;;;4.03;;
12407;SDS011;6268;48.188;17.134;2023-08-21T13:00:48;4.43;;;4.10;;
12407;SDS011;6268;48.188;17.134;2023-08-21T13:03:16;5.38;;;5.07;;
12407;SDS011;6268;48.188;17.134;2023-08-21T13:05:45;5.22;;;4.75;;
12407;SDS011;6268;48.188;17.134;2023-08-21T13:08:13;4.93;;;4.25;;
12407;SDS011;6268;48.188;17.134;2023-08-21T13:10:42;4.95;;;4.43;;
12407;SDS011;6268;48.188;17.134;2023-08-21T13:13:11;5.53;;;4.40;;
12407;SDS011;6268;48.188;17.134;2023-08-21T13:15:45;4.28;;;3.88;;
12407;SDS011;6268;48.188;17.134;2023-08-21T13:18:13;4.07;;;3.67;;
12407;SDS011;6268;48.188;17.134;2023-08-21T13:20:42;4.18;;;3.78;;
12407;SDS011;6268;48.188;17.134;2023-08-21T13:23:10;4.32;;;3.97;;
12407;SDS011;6268;48.188;17.134;2023-08-21T13:25:39;4.53;;;4.18;;
12407;SDS011;6268;48.188;17.134;2023-08-21T13:28:07;4.90;;;4.60;;
12407;SDS011;6268;48.188;17.134;2023-08-21T13:30:37;4.90;;;4.40;;
12407;SDS011;6268;48.188;17.134;2023-08-21T13:33:07;4.88;;;4.57;;
12407;SDS011;6268;48.188;17.134;2023-08-21T13:35:35;5.03;;;4.72;;
12407;SDS011;6268;48.188;17.134;2023-08-21T13:38:04;4.75;;;4.45;;
12407;SDS011;6268;48.188;17.134;2023-08-21T13:40:32;4.88;;;4.57;;
12407;SDS011;6268;48.188;17.134;2023-08-21T13:43:01;5.68;;;4.60;;
12407;SDS011;6268;48.188;17.134;2023-08-21T13:45:30;7.22;;;6.72;;
12407;SDS011;6268;48.188;17.134;2023-08-21T13:47:58;6.30;;;5.85;;
12407;SDS011;6268;48.188;17.134;2023-08-21T13:50:28;5.75;;;5.22;;
12407;SDS011;6268;48.188;17.134;2023-08-21T13:52:57;5.80;;;5.40;;
12407;SDS011;6268;48.188;17.134;2023-08-21T13:55:26;6.18;;;5.68;;
12407;SDS011;6268;48.188;17.134;2023-08-21T13:57:55;5.28;;;5.00;;
12407;SDS011;6268;48.188;17.134;2023-08-21T14:00:23;5.20;;;4.90;;
12407;SDS011;6268;48.188;17.134;2023-08-21T14:02:52;5.50;;;5.10;;
12407;SDS011;6268;48.188;17.134;2023-08-21T14:05:20;5.45;;;5.15;;
12407;SDS011;6268;48.188;17.134;2023-08-21T14:07:50;4.93;;;4.72;;
12407;SDS011;6268;48.188;17.134;2023-08-21T14:10:19;5.55;;;5.15;;
12407;SDS011;6268;48.188;17.134;2023-08-21T14:12:47;5.80;;;5.40;;
12407;SDS011;6268;48.188;17.134;2023-08-21T14:15:15;5.80;;;5.28;;
12407;SDS011;6268;48.188;17.134;2023-08-21T14:17:44;5.30;;;4.97;;
12407;SDS011;6268;48.188;17.134;2023-08-21T14:20:13;8.32;;;5.93;;
12407;SDS011;6268;48.188;17.134;2023-08-21T14:22:41;6.05;;;5.72;;
12407;SDS011;6268;48.188;17.134;2023-08-21T14:25:11;5.82;;;5.43;;
12407;SDS011;6268;48.188;17.134;2023-08-21T14:27:42;5.70;;;5.30;;
12407;SDS011;6268;48.188;17.134;2023-08-21T14:30:10;5.93;;;5.53;;
12407;SDS011;6268;48.188;17.134;2023-08-21T14:32:40;5.78;;;5.30;;
12407;SDS011;6268;48.188;17.134;2023-08-21T14:35:10;5.53;;;5.15;;
12407;SDS011;6268;48.188;17.134;2023-08-21T14:37:39;6.22;;;5.50;;
12407;SDS011;6268;48.188;17.134;2023-08-21T14:40:07;6.00;;;5.50;;
12407;SDS011;6268;48.188;17.134;2023-08-21T14:42:38;6.07;;;5.60;;
12407;SDS011;6268;48.188;17.134;2023-08-21T14:45:07;6.68;;;6.28;;
12407;SDS011;6268;48.188;17.134;2023-08-21T14:47:36;6.53;;;6.03;;
12407;SDS011;6268;48.188;17.134;2023-08-21T14:50:05;6.80;;;6.25;;
12407;SDS011;6268;48.188;17.134;2023-08-21T14:52:34;5.53;;;5.13;;
12407;SDS011;6268;48.188;17.134;2023-08-21T14:55:04;5.40;;;5.00;;
12407;SDS011;6268;48.188;17.134;2023-08-21T14:57:32;5.03;;;4.72;;
12407;SDS011;6268;48.188;17.134;2023-08-21T15:00:03;5.80;;;5.40;;
12407;SDS011;6268;48.188;17.134;2023-08-21T15:02:32;5.20;;;4.90;;
12407;SDS011;6268;48.188;17.134;2023-08-21T15:05:03;5.85;;;5.35;;
12407;SDS011;6268;48.188;17.134;2023-08-21T15:07:33;5.95;;;5.25;;